createdAt,value
2023-07-06T00:01:15.098Z,27.40
2023-07-06T00:03:18.178Z,27.50
2023-07-06T00:05:25.054Z,27.50
2023-07-06T00:07:29.602Z,27.60
2023-07-06T00:09:36.392Z,27.90
2023-07-06T00:11:41.722Z,27.90
2023-07-06T00:13:46.692Z,28.20
2023-07-06T00:15:50.699Z,28.00
2023-07-06T00:17:53.763Z,28.30
2023-07-06T00:20:00.142Z,28.30
2023-07-06T00:22:04.801Z,28.30
2023-07-06T00:24:09.182Z,28.50
2023-07-06T00:26:15.156Z,28.50
2023-07-06T00:28:25.730Z,28.60
2023-07-06T00:30:42.146Z,28.80
2023-07-06T00:32:45.678Z,28.70
2023-07-06T00:34:50.628Z,28.70
2023-07-06T00:36:53.895Z,29.00
2023-07-06T00:38:56.878Z,28.60
2023-07-06T00:41:02.035Z,28.70
2023-07-06T00:43:05.533Z,28.70
2023-07-06T00:45:12.189Z,28.30
2023-07-06T00:47:15.215Z,28.50
2023-07-06T00:49:18.341Z,28.40
2023-07-06T00:51:25.359Z,28.50
2023-07-06T00:53:33.263Z,28.50
2023-07-06T00:55:41.714Z,28.40
2023-07-06T00:57:52.774Z,28.40
2023-07-06T00:59:57.030Z,28.80
2023-07-06T01:02:01.502Z,28.50
2023-07-06T01:04:07.638Z,28.50
2023-07-06T01:06:13.855Z,28.50
2023-07-06T01:08:22.201Z,28.40
2023-07-06T01:10:25.439Z,28.90
2023-07-06T01:12:28.498Z,28.80
2023-07-06T01:14:33.721Z,28.80
2023-07-06T01:16:44.817Z,28.90
2023-07-06T01:18:56.779Z,29.30
2023-07-06T01:21:11.363Z,29.00
2023-07-06T01:23:41.893Z,29.10
2023-07-06T01:25:58.114Z,29.90
2023-07-06T01:28:20.960Z,29.40
2023-07-06T01:30:53.051Z,29.70
2023-07-06T01:33:00.323Z,29.80
2023-07-06T01:35:13.390Z,29.50
2023-07-06T01:37:21.032Z,29.90
2023-07-06T01:39:27.499Z,29.80
2023-07-06T01:41:30.580Z,29.80
2023-07-06T01:43:34.389Z,29.70
2023-07-06T01:45:39.297Z,29.70
2023-07-06T01:47:46.671Z,30.00
2023-07-06T01:49:52.710Z,30.20
2023-07-06T01:52:05.446Z,30.10
2023-07-06T01:54:14.479Z,30.50
2023-07-06T01:56:26.376Z,30.70
2023-07-06T01:58:35.490Z,30.70
2023-07-06T02:00:43.589Z,31.00
2023-07-06T02:02:49.586Z,31.00
2023-07-06T02:04:57.084Z,30.90
2023-07-06T02:07:03.671Z,31.20
2023-07-06T02:09:07.981Z,31.00
2023-07-06T02:11:12.740Z,30.90
2023-07-06T02:13:17.866Z,31.30
2023-07-06T02:15:20.924Z,31.30
2023-07-06T02:17:23.982Z,31.40
2023-07-06T02:19:26.983Z,31.40
2023-07-06T02:21:32.483Z,31.50
2023-07-06T02:23:35.997Z,31.70
2023-07-06T02:25:41.124Z,31.70
2023-07-06T02:27:44.391Z,31.70
2023-07-06T02:29:47.535Z,31.80
2023-07-06T02:31:50.722Z,31.90
2023-07-06T02:33:53.997Z,31.80
2023-07-06T02:35:57.518Z,31.90
2023-07-06T02:38:02.920Z,31.90
2023-07-06T02:40:09.007Z,31.90
2023-07-06T02:42:15.565Z,31.90
2023-07-06T02:44:21.154Z,32.00
2023-07-06T02:46:24.216Z,31.80
2023-07-06T02:48:27.337Z,31.80
2023-07-06T02:50:30.356Z,31.80
2023-07-06T02:52:33.311Z,31.80
2023-07-06T02:54:38.402Z,31.80
2023-07-06T02:56:44.059Z,31.80
2023-07-06T02:58:47.079Z,31.90
2023-07-06T03:00:52.022Z,31.80
2023-07-06T03:02:59.726Z,31.80
2023-07-06T03:05:05.349Z,31.90
2023-07-06T03:07:10.931Z,31.70
2023-07-06T03:09:15.358Z,31.80
2023-07-06T03:11:21.251Z,31.70
2023-07-06T03:13:29.510Z,31.70
2023-07-06T03:15:33.023Z,31.70
2023-07-06T03:17:37.241Z,31.70
2023-07-06T03:19:43.098Z,31.70
2023-07-06T03:21:47.451Z,31.70
2023-07-06T03:23:51.609Z,31.70
2023-07-06T03:25:55.261Z,31.70
2023-07-06T03:28:01.751Z,31.70
2023-07-06T03:30:07.275Z,31.60
2023-07-06T03:32:12.271Z,31.60
2023-07-06T03:34:17.336Z,31.60
2023-07-06T03:36:21.464Z,31.50
2023-07-06T03:38:26.232Z,31.30
2023-07-06T03:40:30.980Z,31.50
2023-07-06T03:42:34.311Z,31.50
2023-07-06T03:44:40.318Z,31.50
2023-07-06T03:46:44.188Z,31.50
2023-07-06T03:48:49.203Z,31.40
2023-07-06T03:50:55.823Z,31.40
2023-07-06T03:53:00.750Z,31.50
2023-07-06T03:55:05.701Z,31.80
2023-07-06T03:57:09.998Z,31.80
2023-07-06T03:59:12.906Z,32.10
2023-07-06T04:01:20.105Z,32.20
2023-07-06T04:03:23.200Z,32.80
2023-07-06T04:05:32.368Z,32.50
2023-07-06T04:07:36.512Z,32.70
2023-07-06T04:09:40.119Z,32.70
2023-07-06T04:11:43.211Z,32.60
2023-07-06T04:13:46.433Z,33.30
2023-07-06T04:15:53.229Z,32.70
2023-07-06T04:17:57.613Z,32.80
2023-07-06T04:20:02.056Z,33.00
2023-07-06T04:22:07.062Z,32.90
2023-07-06T04:24:10.054Z,33.00
2023-07-06T04:26:12.283Z,33.10
2023-07-06T04:28:19.153Z,33.10
2023-07-06T04:30:22.275Z,33.20
2023-07-06T04:32:25.688Z,33.30
2023-07-06T04:34:31.605Z,33.40
2023-07-06T04:36:34.573Z,33.30
2023-07-06T04:38:39.516Z,33.20
2023-07-06T04:40:44.105Z,33.20
2023-07-06T04:42:48.146Z,33.20
2023-07-06T04:44:51.356Z,33.10
2023-07-06T04:46:54.615Z,33.10
2023-07-06T04:48:59.040Z,33.30
2023-07-06T04:51:06.558Z,33.30
2023-07-06T04:53:10.733Z,33.80
2023-07-06T04:55:14.157Z,33.70
2023-07-06T04:57:17.663Z,33.60
2023-07-06T04:59:20.995Z,33.70
2023-07-06T05:01:27.955Z,33.70
2023-07-06T05:03:31.823Z,33.70
2023-07-06T05:05:41.598Z,33.80
2023-07-06T05:07:48.065Z,34.00
2023-07-06T05:09:51.698Z,33.80
2023-07-06T05:11:54.762Z,33.70
2023-07-06T05:13:57.945Z,33.40
2023-07-06T05:16:01.149Z,33.20
2023-07-06T05:18:04.315Z,32.90
2023-07-06T05:20:08.676Z,32.60
2023-07-06T05:22:13.756Z,32.60
2023-07-06T05:24:18.242Z,32.30
2023-07-06T05:26:21.593Z,32.60
2023-07-06T05:28:25.218Z,32.70
2023-07-06T05:30:28.265Z,32.80
2023-07-06T05:32:31.277Z,32.50
2023-07-06T05:34:34.717Z,32.80
2023-07-06T05:36:39.561Z,32.80
2023-07-06T05:38:44.913Z,32.70
2023-07-06T05:40:49.346Z,32.90
2023-07-06T05:42:53.495Z,33.20
2023-07-06T05:44:57.604Z,32.60
2023-07-06T05:47:02.478Z,32.80
2023-07-06T05:49:05.466Z,33.10
2023-07-06T05:51:09.129Z,33.20
2023-07-06T05:53:14.119Z,33.10
2023-07-06T05:55:17.502Z,32.90
2023-07-06T05:57:21.152Z,33.00
2023-07-06T05:59:25.712Z,31.40
2023-07-06T06:01:30.736Z,31.60
2023-07-06T06:03:33.905Z,30.90
2023-07-06T06:05:36.905Z,30.00
2023-07-06T06:07:39.835Z,29.80
2023-07-06T06:09:45.327Z,29.80
2023-07-06T06:11:49.924Z,30.20
2023-07-06T06:13:56.971Z,30.40
2023-07-06T06:16:00.049Z,31.40
2023-07-06T06:18:04.071Z,31.20
2023-07-06T06:20:10.013Z,31.60
2023-07-06T06:22:14.804Z,31.40
2023-07-06T06:24:18.919Z,31.60
2023-07-06T06:26:21.979Z,31.30
2023-07-06T06:28:25.428Z,31.10
2023-07-06T06:30:29.754Z,30.90
2023-07-06T06:32:36.076Z,30.80
2023-07-06T06:34:40.471Z,30.80
2023-07-06T06:36:44.116Z,30.70
2023-07-06T06:38:47.867Z,30.70
2023-07-06T06:40:54.881Z,30.10
2023-07-06T06:42:58.973Z,29.90
2023-07-06T06:45:03.991Z,29.90
2023-07-06T06:47:10.242Z,30.00
2023-07-06T06:49:13.598Z,30.00
2023-07-06T06:51:19.502Z,29.90
2023-07-06T06:53:23.310Z,29.90
2023-07-06T06:55:26.698Z,29.90
2023-07-06T06:57:31.721Z,29.60
2023-07-06T06:59:36.293Z,29.50
2023-07-06T07:01:41.900Z,29.30
2023-07-06T07:03:48.550Z,29.50
2023-07-06T07:06:13.251Z,29.20
2023-07-06T07:08:19.895Z,28.60
2023-07-06T07:10:23.381Z,28.70
2023-07-06T07:12:26.741Z,27.70
2023-07-06T07:14:30.542Z,26.60
2023-07-06T07:16:35.944Z,25.90
2023-07-06T07:18:39.438Z,25.30
2023-07-06T07:20:44.782Z,25.40
2023-07-06T07:22:47.875Z,24.80
2023-07-06T07:24:52.348Z,24.70
2023-07-06T07:26:56.214Z,23.60
2023-07-06T07:28:59.427Z,23.60
2023-07-06T07:31:07.007Z,23.20
2023-07-06T07:33:10.035Z,23.00
2023-07-06T07:35:14.639Z,23.40
2023-07-06T07:37:19.385Z,23.20
2023-07-06T07:39:22.353Z,22.50
2023-07-06T07:41:25.413Z,22.50
2023-07-06T07:43:32.668Z,22.40
2023-07-06T07:45:36.445Z,22.70
2023-07-06T07:47:40.781Z,22.40
2023-07-06T07:49:43.825Z,22.00
2023-07-06T07:51:47.254Z,22.20
2023-07-06T07:53:54.391Z,21.90
2023-07-06T07:55:59.267Z,22.40
2023-07-06T07:58:02.237Z,22.10
2023-07-06T08:00:08.179Z,21.80
2023-07-06T08:02:18.843Z,21.30
2023-07-06T08:04:23.561Z,21.50
2023-07-06T08:06:26.572Z,21.50
2023-07-06T08:08:29.550Z,21.50
2023-07-06T08:10:38.341Z,21.20
2023-07-06T08:12:41.468Z,21.10
2023-07-06T08:14:44.519Z,20.60
2023-07-06T08:16:49.927Z,20.80
2023-07-06T08:19:19.974Z,20.50
2023-07-06T08:21:44.848Z,19.90
2023-07-06T08:23:49.472Z,19.20
2023-07-06T08:25:57.633Z,17.80
2023-07-06T08:28:06.136Z,18.40
2023-07-06T08:30:10.126Z,17.70
2023-07-06T08:32:17.226Z,18.10
2023-07-06T08:34:20.325Z,18.10
2023-07-06T08:36:26.751Z,17.80
2023-07-06T08:38:29.939Z,17.80
2023-07-06T08:40:38.738Z,17.20
2023-07-06T08:42:44.835Z,17.80
2023-07-06T08:44:52.164Z,18.00
2023-07-06T08:46:56.852Z,18.00
2023-07-06T08:49:01.759Z,18.10
2023-07-06T08:51:18.290Z,17.50
2023-07-06T08:53:28.669Z,16.60
2023-07-06T08:55:32.424Z,16.50
2023-07-06T08:57:35.395Z,16.60
2023-07-06T08:59:42.174Z,15.80
2023-07-06T09:01:46.392Z,16.20
2023-07-06T09:03:51.154Z,16.50
2023-07-06T09:05:55.047Z,16.80
2023-07-06T09:07:58.345Z,15.60
2023-07-06T09:10:14.042Z,15.50
2023-07-06T09:12:33.113Z,14.30
2023-07-06T09:14:42.541Z,15.10
2023-07-06T09:16:51.144Z,14.90
2023-07-06T09:18:55.187Z,14.90
2023-07-06T09:21:01.733Z,15.20
2023-07-06T09:23:07.118Z,15.10
2023-07-06T09:25:16.151Z,15.10
2023-07-06T09:27:24.537Z,15.40
2023-07-06T09:29:38.641Z,15.10
2023-07-06T09:31:44.292Z,15.40
2023-07-06T09:33:49.818Z,15.70
2023-07-06T09:35:55.277Z,15.50
2023-07-06T09:38:02.494Z,15.70
2023-07-06T09:40:10.582Z,15.70
2023-07-06T09:42:19.391Z,15.70
2023-07-06T09:44:28.050Z,15.80
2023-07-06T09:46:37.503Z,15.90
2023-07-06T09:48:43.184Z,15.10
2023-07-06T09:50:52.276Z,15.30
2023-07-06T09:52:57.692Z,14.60
2023-07-06T09:55:05.057Z,14.50
2023-07-06T09:57:13.471Z,13.90
2023-07-06T09:59:16.696Z,15.30
2023-07-06T10:01:29.975Z,14.60
2023-07-06T10:03:44.968Z,14.50
2023-07-06T10:05:54.929Z,14.10
2023-07-06T10:08:03.215Z,14.00
2023-07-06T10:10:17.182Z,14.10
2023-07-06T10:12:29.118Z,14.00
2023-07-06T10:14:39.932Z,14.00
2023-07-06T10:16:53.350Z,14.20
2023-07-06T10:19:05.720Z,13.70
2023-07-06T10:21:19.478Z,14.00
2023-07-06T10:23:33.820Z,13.90
2023-07-06T10:25:47.453Z,13.60
2023-07-06T10:27:59.030Z,13.30
2023-07-06T10:30:06.472Z,13.60
2023-07-06T10:32:13.870Z,14.10
2023-07-06T10:34:34.891Z,14.10
2023-07-06T10:36:43.778Z,13.80
2023-07-06T10:38:49.569Z,14.00
2023-07-06T10:40:53.815Z,13.70
2023-07-06T10:43:22.516Z,13.80
2023-07-06T10:45:41.320Z,13.40
2023-07-06T10:47:46.485Z,12.90
2023-07-06T10:52:31.107Z,12.80
2023-07-06T10:54:34.575Z,12.70
2023-07-06T10:56:48.769Z,12.70
2023-07-06T10:58:57.051Z,13.00
2023-07-06T11:01:07.562Z,12.80
2023-07-06T11:03:23.858Z,12.20
2023-07-06T11:05:31.348Z,11.80
2023-07-06T11:07:48.551Z,12.70
2023-07-06T11:10:20.526Z,13.20
2023-07-06T11:12:26.120Z,12.80
2023-07-06T11:14:43.499Z,13.10
2023-07-06T11:16:57.201Z,13.70
2023-07-06T11:19:03.648Z,13.60
2023-07-06T11:21:24.964Z,13.80
2023-07-06T11:23:37.810Z,13.60
2023-07-06T11:25:41.879Z,13.00
2023-07-06T11:27:47.554Z,13.40
2023-07-06T11:29:49.920Z,13.10
2023-07-06T11:32:06.042Z,12.70
2023-07-06T11:34:22.080Z,12.90
2023-07-06T11:36:31.966Z,12.10
2023-07-06T11:38:56.484Z,11.70
2023-07-06T11:41:33.884Z,11.50
2023-07-06T11:43:54.062Z,12.60
2023-07-06T11:46:04.888Z,11.60
2023-07-06T11:48:19.496Z,11.00
2023-07-06T11:50:25.828Z,11.70
2023-07-06T11:52:34.212Z,12.20
2023-07-06T11:54:50.692Z,12.00
2023-07-06T11:57:14.067Z,12.10
2023-07-06T11:59:38.009Z,11.50
2023-07-06T12:01:47.119Z,11.40
2023-07-06T12:03:58.625Z,11.30
2023-07-06T12:06:05.724Z,11.20
2023-07-06T12:08:16.729Z,11.20
2023-07-06T12:10:21.728Z,11.30
2023-07-06T12:12:24.765Z,11.40
2023-07-06T12:14:34.620Z,11.40
2023-07-06T12:16:41.785Z,11.60
2023-07-06T12:18:46.972Z,11.60
2023-07-06T12:20:53.662Z,11.30
2023-07-06T12:22:58.966Z,11.10
2023-07-06T12:25:03.429Z,11.20
2023-07-06T12:27:16.007Z,11.30
2023-07-06T12:29:24.905Z,11.20
2023-07-06T12:31:29.046Z,11.00
2023-07-06T12:33:33.817Z,10.90
2023-07-06T12:35:43.808Z,11.10
2023-07-06T12:37:51.545Z,11.40
2023-07-06T12:39:56.091Z,11.30
2023-07-06T12:42:01.232Z,11.50
2023-07-06T12:44:07.774Z,10.90
2023-07-06T12:46:11.780Z,10.80
2023-07-06T12:48:25.312Z,11.40
2023-07-06T12:50:38.737Z,11.20
2023-07-06T12:52:46.198Z,11.60
2023-07-06T12:54:53.779Z,10.90
2023-07-06T12:57:01.336Z,10.70
2023-07-06T12:59:08.028Z,10.50
2023-07-06T13:01:19.270Z,11.20
2023-07-06T13:03:23.115Z,10.30
2023-07-06T13:05:28.229Z,10.80
2023-07-06T13:07:31.550Z,11.00
2023-07-06T13:09:34.541Z,10.40
2023-07-06T13:11:39.510Z,11.50
2023-07-06T13:13:44.059Z,11.10
2023-07-06T13:15:48.526Z,10.30
2023-07-06T13:17:53.754Z,10.50
2023-07-06T13:19:58.219Z,9.40
2023-07-06T13:22:01.445Z,9.70
2023-07-06T13:24:04.993Z,10.10
2023-07-06T13:26:07.965Z,9.30
2023-07-06T13:30:26.603Z,9.20
2023-07-06T13:32:37.719Z,9.30
2023-07-06T13:34:46.648Z,9.00
2023-07-06T13:36:49.667Z,8.40
2023-07-06T13:38:52.630Z,8.30
2023-07-06T13:40:57.584Z,8.50
2023-07-06T13:43:01.235Z,8.80
2023-07-06T13:45:05.119Z,8.60
2023-07-06T13:47:13.255Z,7.90
2023-07-06T13:49:18.413Z,7.70
2023-07-06T13:51:22.359Z,8.00
2023-07-06T13:53:27.580Z,7.60
2023-07-06T13:55:35.433Z,7.50
2023-07-06T13:57:38.420Z,7.50
2023-07-06T13:59:41.567Z,7.00
2023-07-06T14:01:46.908Z,6.80
2023-07-06T14:03:55.796Z,7.10
2023-07-06T14:06:00.460Z,7.20
2023-07-06T14:08:04.238Z,6.80
2023-07-06T14:10:08.501Z,7.30
2023-07-06T14:12:14.769Z,6.70
2023-07-06T14:14:20.572Z,7.60
2023-07-06T14:16:23.777Z,7.50
2023-07-06T14:18:27.686Z,7.40
2023-07-06T14:20:30.666Z,7.00
2023-07-06T14:22:36.247Z,7.20
2023-07-06T14:24:40.427Z,6.60
2023-07-06T14:26:43.617Z,6.90
2023-07-06T14:28:50.738Z,6.90
2023-07-06T14:30:57.767Z,7.60
2023-07-06T14:33:01.960Z,7.20
2023-07-06T14:35:07.740Z,6.90
2023-07-06T14:37:12.059Z,6.50
2023-07-06T14:39:18.435Z,6.40
2023-07-06T14:41:25.489Z,5.60
2023-07-06T14:43:29.407Z,5.70
2023-07-06T14:45:33.695Z,6.00
2023-07-06T14:47:36.921Z,5.40
2023-07-06T14:49:40.014Z,5.70
2023-07-06T14:51:43.083Z,5.90
2023-07-06T14:53:49.773Z,5.60
2023-07-06T14:55:58.380Z,6.00
2023-07-06T14:58:01.853Z,5.50
2023-07-06T15:00:06.624Z,5.50
2023-07-06T15:02:11.492Z,5.70
2023-07-06T15:04:14.626Z,6.00
2023-07-06T15:06:18.265Z,6.00
2023-07-06T15:08:22.581Z,6.10
2023-07-06T15:10:26.003Z,6.30
2023-07-06T15:12:32.577Z,6.50
2023-07-06T15:14:43.228Z,6.80
2023-07-06T15:16:46.455Z,6.90
2023-07-06T15:18:49.605Z,6.80
2023-07-06T15:21:05.250Z,5.90
2023-07-06T15:23:08.203Z,6.00
2023-07-06T15:25:13.387Z,5.90
2023-07-06T15:27:19.143Z,5.70
2023-07-06T15:29:23.534Z,5.70
2023-07-06T15:31:27.172Z,5.70
2023-07-06T15:33:30.680Z,5.70
2023-07-06T15:35:35.319Z,5.70
2023-07-06T15:37:38.275Z,6.00
2023-07-06T15:39:43.479Z,6.20
2023-07-06T15:41:46.455Z,6.70
2023-07-06T15:43:49.496Z,7.10
2023-07-06T15:45:53.853Z,6.70
2023-07-06T15:47:59.244Z,6.90
2023-07-06T15:50:04.144Z,7.00
2023-07-06T15:52:09.150Z,7.20
2023-07-06T15:54:15.335Z,6.90
2023-07-06T15:56:20.447Z,6.70
2023-07-06T15:58:23.620Z,6.80
2023-07-06T16:00:27.240Z,6.30
2023-07-06T16:02:31.739Z,6.30
2023-07-06T16:04:34.983Z,6.30
2023-07-06T16:06:43.814Z,6.80
2023-07-06T16:08:46.850Z,6.50
2023-07-06T16:10:51.148Z,6.60
2023-07-06T16:12:54.423Z,6.20
2023-07-06T16:14:57.432Z,6.50
2023-07-06T16:17:02.464Z,6.40
2023-07-06T16:19:08.756Z,6.20
2023-07-06T16:21:11.925Z,5.80
2023-07-06T16:23:16.028Z,6.00
2023-07-06T16:25:19.040Z,5.80
2023-07-06T16:27:22.271Z,5.90
2023-07-06T16:29:25.179Z,5.50
2023-07-06T16:31:33.184Z,5.60
2023-07-06T16:33:38.762Z,5.60
2023-07-06T16:35:43.118Z,5.90
2023-07-06T16:37:46.467Z,5.80
2023-07-06T16:39:49.468Z,5.90
2023-07-06T16:41:52.486Z,6.10
2023-07-06T16:43:55.564Z,5.70
2023-07-06T16:45:58.856Z,6.00
2023-07-06T16:48:05.104Z,6.00
2023-07-06T16:50:09.196Z,6.10
2023-07-06T16:52:13.675Z,5.90
2023-07-06T16:54:16.899Z,5.90
2023-07-06T16:56:24.489Z,5.80
2023-07-06T16:58:32.929Z,6.00
2023-07-06T17:00:36.035Z,6.10
2023-07-06T17:02:41.697Z,6.00
2023-07-06T17:04:45.228Z,5.90
2023-07-06T17:06:48.105Z,6.10
2023-07-06T17:08:52.473Z,6.30
2023-07-06T17:10:55.507Z,6.30
2023-07-06T17:12:57.846Z,6.10
2023-07-06T17:15:01.118Z,6.10
2023-07-06T17:17:04.366Z,6.20
2023-07-06T17:19:07.482Z,6.10
2023-07-06T17:21:13.722Z,6.20
2023-07-06T17:23:16.717Z,6.30
2023-07-06T17:25:21.207Z,6.10
2023-07-06T17:27:26.438Z,6.10
2023-07-06T17:29:30.288Z,6.10
2023-07-06T17:31:33.638Z,6.50
2023-07-06T17:33:36.978Z,6.30
2023-07-06T17:35:39.365Z,6.40
2023-07-06T17:37:42.512Z,6.30
2023-07-06T17:39:44.629Z,6.80
2023-07-06T17:41:50.975Z,7.00
2023-07-06T17:43:53.944Z,6.80
2023-07-06T17:45:57.314Z,6.80
2023-07-06T17:48:02.494Z,7.00
2023-07-06T17:50:06.439Z,7.20
2023-07-06T17:52:09.571Z,7.50
2023-07-06T17:54:14.100Z,7.20
2023-07-06T17:56:17.131Z,6.90
2023-07-06T17:58:24.777Z,6.60
2023-07-06T18:00:27.859Z,7.50
2023-07-06T18:02:32.540Z,7.90
2023-07-06T18:04:38.495Z,8.30
2023-07-06T18:06:41.448Z,8.20
2023-07-06T18:08:44.406Z,8.50
2023-07-06T18:10:49.363Z,8.50
2023-07-06T18:12:54.984Z,9.10
2023-07-06T18:14:59.413Z,9.20
2023-07-06T18:17:02.574Z,9.10
2023-07-06T18:19:05.596Z,9.00
2023-07-06T18:21:08.668Z,9.30
2023-07-06T18:23:18.880Z,9.30
2023-07-06T18:25:23.013Z,9.10
2023-07-06T18:27:26.178Z,9.00
2023-07-06T18:29:29.138Z,9.00
2023-07-06T18:31:42.935Z,9.00
2023-07-06T18:33:47.278Z,9.10
2023-07-06T18:35:55.766Z,9.20
2023-07-06T18:38:00.697Z,9.40
2023-07-06T18:40:03.940Z,9.40
2023-07-06T18:42:07.261Z,9.40
2023-07-06T18:44:11.773Z,9.60
2023-07-06T18:46:14.813Z,9.60
2023-07-06T18:48:20.511Z,9.90
2023-07-06T18:50:23.893Z,10.20
2023-07-06T18:52:40.209Z,10.10
2023-07-06T18:54:43.303Z,10.20
2023-07-06T18:56:46.527Z,9.80
2023-07-06T18:58:51.423Z,9.90
2023-07-06T19:00:54.448Z,9.90
2023-07-06T19:02:57.500Z,10.10
2023-07-06T19:05:04.717Z,10.00
2023-07-06T19:07:08.159Z,10.00
2023-07-06T19:09:11.115Z,10.40
2023-07-06T19:11:15.467Z,10.20
2023-07-06T19:13:18.917Z,10.10
2023-07-06T19:15:22.146Z,10.20
2023-07-06T19:17:25.450Z,10.00
2023-07-06T19:19:29.080Z,10.00
2023-07-06T19:21:33.481Z,10.10
2023-07-06T19:23:38.320Z,10.00
2023-07-06T19:25:41.787Z,10.20
2023-07-06T19:27:44.700Z,10.30
2023-07-06T19:29:49.131Z,10.20
2023-07-06T19:32:07.413Z,10.40
2023-07-06T19:34:14.949Z,10.40
2023-07-06T19:36:18.767Z,10.40
2023-07-06T19:38:25.421Z,10.60
2023-07-06T19:40:30.652Z,10.70
2023-07-06T19:42:33.656Z,10.50
2023-07-06T19:44:36.567Z,10.70
2023-07-06T19:46:39.521Z,10.50
2023-07-06T19:48:43.268Z,10.60
2023-07-06T19:50:46.295Z,10.70
2023-07-06T19:52:54.003Z,10.70
2023-07-06T19:54:58.625Z,10.70
2023-07-06T19:57:01.548Z,10.60
2023-07-06T19:59:08.082Z,10.60
2023-07-06T20:01:12.780Z,11.10
2023-07-06T20:03:16.100Z,10.60
2023-07-06T20:05:19.061Z,10.60
2023-07-06T20:07:22.460Z,10.70
2023-07-06T20:09:25.430Z,10.90
2023-07-06T20:11:29.724Z,10.90
2023-07-06T20:13:34.145Z,11.00
2023-07-06T20:15:37.214Z,10.90
2023-07-06T20:17:41.090Z,11.00
2023-07-06T20:19:44.210Z,11.10
2023-07-06T20:21:47.161Z,11.00
2023-07-06T20:23:50.139Z,11.20
2023-07-06T20:25:53.082Z,11.20
2023-07-06T20:27:57.411Z,11.20
2023-07-06T20:30:02.115Z,11.30
2023-07-06T20:32:05.773Z,11.40
2023-07-06T20:34:10.511Z,11.50
2023-07-06T20:36:13.881Z,11.50
2023-07-06T20:38:16.908Z,11.60
2023-07-06T20:40:27.600Z,11.60
2023-07-06T20:42:30.966Z,11.60
2023-07-06T20:44:35.228Z,11.60
2023-07-06T20:46:40.437Z,11.70
2023-07-06T20:48:43.858Z,11.80
2023-07-06T20:50:46.856Z,11.80
2023-07-06T20:52:49.834Z,11.90
2023-07-06T20:54:52.950Z,11.80
2023-07-06T20:56:56.143Z,11.90
2023-07-06T20:58:59.092Z,11.90
2023-07-06T21:01:03.525Z,12.00
2023-07-06T21:03:06.939Z,12.00
2023-07-06T21:05:10.120Z,11.90
2023-07-06T21:07:13.385Z,12.00
2023-07-06T21:09:17.002Z,12.00
2023-07-06T21:11:22.012Z,12.10
2023-07-06T21:13:25.216Z,12.10
2023-07-06T21:15:28.649Z,12.00
2023-07-06T21:17:33.204Z,12.10
2023-07-06T21:19:37.867Z,12.30
2023-07-06T21:21:41.448Z,12.20
2023-07-06T21:23:46.186Z,12.10
2023-07-06T21:25:50.210Z,12.20
2023-07-06T21:27:53.212Z,12.40
2023-07-06T21:29:55.281Z,12.40
2023-07-06T21:31:58.517Z,12.50
2023-07-06T21:34:03.099Z,12.50
2023-07-06T21:36:08.743Z,12.60
2023-07-06T21:38:12.167Z,12.50
2023-07-06T21:40:15.316Z,12.70
2023-07-06T21:42:18.343Z,12.70
2023-07-06T21:44:21.480Z,12.80
2023-07-06T21:46:26.202Z,12.80
2023-07-06T21:48:31.136Z,12.80
2023-07-06T21:50:37.993Z,12.80
2023-07-06T21:52:41.020Z,13.10
2023-07-06T21:54:44.055Z,13.30
2023-07-06T21:56:47.951Z,13.30
2023-07-06T21:58:51.422Z,13.30
2023-07-06T22:00:54.440Z,13.30
2023-07-06T22:02:59.932Z,13.40
2023-07-06T22:05:03.268Z,13.40
2023-07-06T22:07:08.007Z,13.70
2023-07-06T22:09:11.017Z,13.70
2023-07-06T22:11:16.750Z,13.80
2023-07-06T22:13:19.750Z,13.90
2023-07-06T22:15:34.062Z,14.00
2023-07-06T22:17:40.530Z,14.10
2023-07-06T22:19:43.466Z,14.20
2023-07-06T22:21:49.485Z,14.30
2023-07-06T22:23:54.159Z,14.30
2023-07-06T22:25:57.885Z,14.50
2023-07-06T22:28:02.927Z,14.50
2023-07-06T22:30:09.903Z,14.50
2023-07-06T22:32:13.950Z,14.80
2023-07-06T22:34:16.955Z,14.90
2023-07-06T22:36:19.977Z,15.00
2023-07-06T22:38:23.093Z,15.10
2023-07-06T22:40:32.211Z,15.10
2023-07-06T22:42:41.530Z,15.50
2023-07-06T22:44:46.914Z,15.50
2023-07-06T22:46:52.722Z,15.50
2023-07-06T22:49:02.412Z,15.50
2023-07-06T22:51:07.010Z,15.60
2023-07-06T22:53:12.620Z,15.60
2023-07-06T22:55:15.673Z,15.70
2023-07-06T22:57:21.989Z,15.80
2023-07-06T22:59:25.288Z,15.90
2023-07-06T23:01:47.600Z,15.90
2023-07-06T23:03:55.344Z,16.30
2023-07-06T23:06:03.542Z,16.00
2023-07-06T23:08:09.912Z,16.40
2023-07-06T23:10:20.638Z,16.40
2023-07-06T23:12:34.184Z,16.50
2023-07-06T23:14:38.467Z,16.90
2023-07-06T23:16:47.131Z,16.70
2023-07-06T23:18:56.127Z,16.90
2023-07-06T23:21:00.824Z,16.80
2023-07-06T23:23:08.397Z,16.80
2023-07-06T23:25:16.423Z,16.70
2023-07-06T23:27:20.420Z,16.90
2023-07-06T23:29:28.246Z,17.00
2023-07-06T23:31:39.109Z,17.50
2023-07-06T23:33:44.237Z,17.30
2023-07-06T23:35:53.204Z,17.30
2023-07-06T23:38:00.289Z,17.60
2023-07-06T23:40:08.800Z,17.40
2023-07-06T23:42:12.723Z,17.70
2023-07-06T23:44:17.320Z,17.60
2023-07-06T23:46:23.649Z,17.80
2023-07-06T23:48:27.819Z,18.00
2023-07-06T23:50:31.898Z,17.90
2023-07-06T23:52:37.477Z,18.00
2023-07-06T23:54:44.017Z,18.10
2023-07-06T23:56:47.855Z,18.10
2023-07-06T23:58:52.528Z,18.10
